Time;durP1;ratioP1;P1;durP2;ratioP2;P2;SDS_P1;SDS_P2;PMS_P1;PMS_P2;Temp;Humidity;BMP_temperature;BMP_pressure;BME280_temperature;BME280_humidity;BME280_pressure;Samples;Min_cycle;Max_cycle;Signal;HPM_P1;HPM_P2
2024/01/09 00:00:46;;;;;;;1999.90;999.90;;;-2.80;99.90;;;;;;4996445;28;20065;-80
2024/01/09 00:03:12;;;;;;;1999.90;999.90;;;-2.90;99.90;;;;;;5001027;28;20069;-80
2024/01/09 00:05:37;;;;;;;1999.90;999.90;;;-2.80;99.90;;;;;;5015605;28;20053;-80
2024/01/09 00:08:03;;;;;;;1999.90;999.90;;;-2.90;99.90;;;;;;4991044;28;20115;-80
2024/01/09 00:10:29;;;;;;;1999.90;999.90;;;-2.90;99.90;;;;;;5003474;28;20049;-80
2024/01/09 00:12:56;;;;;;;1999.90;999.90;;;-2.90;99.90;;;;;;4991371;28;20052;-79
2024/01/09 00:15:21;;;;;;;1999.90;999.90;;;-3.00;99.90;;;;;;5007153;28;20041;-80
2024/01/09 00:17:48;;;;;;;1999.90;999.90;;;-3.00;99.90;;;;;;4988059;28;20035;-81
2024/01/09 00:20:14;;;;;;;1999.90;999.90;;;-3.00;99.90;;;;;;5006291;28;20092;-80
2024/01/09 00:22:41;;;;;;;1999.90;999.90;;;-3.00;99.90;;;;;;4989991;28;20046;-79
2024/01/09 00:25:08;;;;;;;1999.90;999.90;;;-3.10;99.90;;;;;;4986545;28;20084;-80
2024/01/09 00:27:34;;;;;;;1999.90;999.90;;;-3.10;99.90;;;;;;4987048;28;20042;-80
2024/01/09 00:29:59;;;;;;;1999.90;999.90;;;-3.10;99.90;;;;;;5007790;28;20036;-81
2024/01/09 00:32:26;;;;;;;1999.90;999.90;;;-3.10;99.90;;;;;;5007036;28;20098;-81
2024/01/09 00:34:51;;;;;;;1999.90;999.90;;;-3.20;99.90;;;;;;4994900;28;20566;-80
2024/01/09 00:37:17;;;;;;;1999.90;999.90;;;-3.20;99.90;;;;;;5007129;28;20077;-81
2024/01/09 00:39:43;;;;;;;1999.90;999.90;;;-1.70;99.90;;;;;;4986180;28;20040;-80
2024/01/09 00:42:08;;;;;;;1999.90;999.90;;;-3.20;99.90;;;;;;4989766;28;20410;-80
2024/01/09 00:44:34;;;;;;;1999.90;999.90;;;-3.20;99.90;;;;;;5012429;28;20105;-80
2024/01/09 00:47:03;;;;;;;1999.90;999.90;;;-3.20;99.90;;;;;;5008889;28;20088;-79
2024/01/09 00:49:28;;;;;;;1999.90;999.90;;;-3.20;99.90;;;;;;4991515;28;20042;-80
2024/01/09 00:51:54;;;;;;;1999.90;999.90;;;-3.20;99.90;;;;;;5010661;28;20602;-80
2024/01/09 00:54:20;;;;;;;1999.90;999.90;;;-3.20;99.90;;;;;;5006026;28;20069;-81
2024/01/09 00:56:46;;;;;;;1999.90;999.90;;;-3.20;99.90;;;;;;4993761;28;20080;-80
2024/01/09 00:59:12;;;;;;;1999.90;999.90;;;-3.30;99.90;;;;;;5008152;28;20395;-79
2024/01/09 01:01:38;;;;;;;1999.90;999.90;;;-3.30;99.90;;;;;;4995496;28;20065;-80
2024/01/09 01:04:04;;;;;;;1999.90;999.90;;;-3.20;99.90;;;;;;5012964;28;20049;-80
2024/01/09 01:06:29;;;;;;;1999.90;999.90;;;-3.20;99.90;;;;;;4994792;28;20065;-80
2024/01/09 01:08:55;;;;;;;1999.90;999.90;;;-3.20;99.90;;;;;;4979080;28;20093;-79
2024/01/09 01:11:20;;;;;;;1999.90;999.90;;;-3.30;99.90;;;;;;5011187;28;20043;-80
2024/01/09 01:13:47;;;;;;;1999.90;999.90;;;-1.70;99.90;;;;;;5010895;28;20069;-81
2024/01/09 01:16:13;;;;;;;1999.90;999.90;;;-3.40;99.90;;;;;;4998514;28;20046;-80
2024/01/09 01:18:39;;;;;;;1999.90;999.90;;;-3.20;99.90;;;;;;4989345;28;20049;-79
2024/01/09 01:21:04;;;;;;;1999.90;999.90;;;-1.80;99.90;;;;;;5006886;28;20141;-80
2024/01/09 01:23:30;;;;;;;1999.90;999.90;;;-3.40;99.90;;;;;;4993466;28;20062;-80
2024/01/09 01:25:56;;;;;;;1999.90;999.90;;;-1.70;99.90;;;;;;4986900;28;20038;-80
2024/01/09 01:28:21;;;;;;;1999.90;999.90;;;-3.30;99.90;;;;;;5010026;28;20056;-80
2024/01/09 01:30:47;;;;;;;1999.90;999.90;;;-3.30;99.90;;;;;;5007640;28;20057;-80
2024/01/09 01:33:12;;;;;;;1999.90;999.90;;;-3.40;99.90;;;;;;4974321;28;20426;-81
2024/01/09 01:35:38;;;;;;;1999.90;999.90;;;-3.40;99.90;;;;;;5006069;28;20066;-80
2024/01/09 01:38:05;;;;;;;1999.90;999.90;;;-3.40;99.90;;;;;;5010789;28;20042;-80
2024/01/09 01:40:31;;;;;;;1999.90;999.90;;;-3.40;99.90;;;;;;5006471;28;20050;-81
2024/01/09 01:42:59;;;;;;;1999.90;999.90;;;-3.20;99.90;;;;;;4993801;28;20038;-80
2024/01/09 01:45:25;;;;;;;1999.90;999.90;;;-2.10;99.90;;;;;;5009193;28;20038;-80
2024/01/09 01:47:51;;;;;;;1999.90;999.90;;;-3.40;99.90;;;;;;4988808;28;20171;-81
2024/01/09 01:50:16;;;;;;;1999.90;999.90;;;-1.90;99.90;;;;;;5006780;28;20042;-80
2024/01/09 01:52:44;;;;;;;1999.90;999.90;;;-3.50;99.90;;;;;;4992623;28;20805;-80
2024/01/09 01:55:11;;;;;;;1999.90;999.90;;;-3.50;99.90;;;;;;4993152;28;20043;-80
2024/01/09 01:57:39;;;;;;;1999.90;999.90;;;-3.50;99.90;;;;;;5006151;28;20048;-79
2024/01/09 02:00:05;;;;;;;1999.90;999.90;;;-3.40;99.90;;;;;;5004869;28;20042;-80
2024/01/09 02:02:32;;;;;;;1999.90;999.90;;;-3.40;99.90;;;;;;5014104;28;20046;-81
2024/01/09 02:04:57;;;;;;;1999.90;999.90;;;-3.50;99.90;;;;;;5003363;28;20061;-79
2024/01/09 02:07:26;;;;;;;1999.90;999.90;;;-3.50;99.90;;;;;;4980770;28;20037;-80
2024/01/09 02:09:53;;;;;;;1999.90;999.90;;;-3.50;99.90;;;;;;5008856;28;20038;-80
2024/01/09 02:12:20;;;;;;;1999.90;999.90;;;-3.50;99.90;;;;;;5005464;28;20123;-81
2024/01/09 02:14:47;;;;;;;1999.90;999.90;;;-3.50;99.90;;;;;;4993855;28;20046;-80
2024/01/09 02:17:13;;;;;;;1999.90;999.90;;;-3.50;99.90;;;;;;4989137;28;20045;-80
2024/01/09 02:19:39;;;;;;;1999.90;999.90;;;-3.50;99.90;;;;;;5009795;28;20124;-80
2024/01/09 02:22:04;;;;;;;1999.90;999.90;;;-2.30;99.90;;;;;;4989192;28;20503;-80
2024/01/09 02:24:30;;;;;;;1999.90;999.90;;;-3.50;99.90;;;;;;5006526;28;20088;-80
2024/01/09 02:27:23;;;;;;;1999.90;999.90;;;-3.50;99.90;;;;;;4993524;28;20034;-79
2024/01/09 02:29:53;;;;;;;1999.90;999.90;;;-3.60;99.90;;;;;;5001485;28;20045;-80
2024/01/09 02:32:19;;;;;;;1999.90;999.90;;;-3.60;99.90;;;;;;4990259;28;20530;-80
2024/01/09 02:34:46;;;;;;;1999.90;999.90;;;-3.60;99.90;;;;;;5009383;28;20045;-81
2024/01/09 02:37:12;;;;;;;1999.90;999.90;;;-3.60;99.90;;;;;;5003658;28;20062;-80
2024/01/09 02:39:37;;;;;;;1999.90;999.90;;;-3.60;99.90;;;;;;5007366;28;20707;-80
2024/01/09 02:42:03;;;;;;;1999.90;999.90;;;-3.60;99.90;;;;;;4994957;28;20042;-80
2024/01/09 02:44:30;;;;;;;1999.90;999.90;;;-3.60;99.90;;;;;;5008756;28;20061;-80
2024/01/09 02:46:56;;;;;;;1999.90;999.90;;;-3.70;99.90;;;;;;4992885;28;20088;-81
2024/01/09 02:49:21;;;;;;;1999.90;999.90;;;-3.70;99.90;;;;;;5004751;28;20030;-81
2024/01/09 02:51:47;;;;;;;1999.90;999.90;;;-3.70;99.90;;;;;;4984836;28;20089;-81
2024/01/09 02:54:13;;;;;;;1999.90;999.90;;;-2.00;99.90;;;;;;4989433;28;20414;-80
2024/01/09 02:56:39;;;;;;;1999.90;999.90;;;-3.70;99.90;;;;;;4995413;28;20073;-81
2024/01/09 02:59:05;;;;;;;1999.90;999.90;;;-3.70;99.90;;;;;;5007444;28;20148;-81
2024/01/09 03:01:30;;;;;;;1999.90;999.90;;;-3.70;99.90;;;;;;4989540;28;20038;-80
2024/01/09 03:03:56;;;;;;;1999.90;999.90;;;-3.70;99.90;;;;;;4992785;28;20415;-80
2024/01/09 03:06:22;;;;;;;1999.90;999.90;;;-3.70;99.90;;;;;;4988873;28;20164;-80
2024/01/09 03:08:50;;;;;;;1999.90;999.90;;;-3.40;99.90;;;;;;5008283;28;20042;-80
2024/01/09 03:11:16;;;;;;;1999.90;999.90;;;-3.70;99.90;;;;;;4988342;28;20054;-80
2024/01/09 03:13:42;;;;;;;1999.90;999.90;;;-3.80;99.90;;;;;;5005747;28;20045;-81
2024/01/09 03:16:11;;;;;;;1999.90;999.90;;;-3.80;99.90;;;;;;4989792;28;20457;-80
2024/01/09 03:18:37;;;;;;;1999.90;999.90;;;-3.80;99.90;;;;;;4991403;28;20029;-80
2024/01/09 03:21:03;;;;;;;1999.90;999.90;;;-3.80;99.90;;;;;;4988758;28;20050;-80
2024/01/09 03:23:29;;;;;;;1999.90;999.90;;;-3.80;99.90;;;;;;4987603;28;20038;-80
2024/01/09 03:25:54;;;;;;;1999.90;999.90;;;-3.90;99.90;;;;;;5011790;28;20073;-80
2024/01/09 03:28:20;;;;;;;1999.90;999.90;;;-3.20;99.90;;;;;;4992441;28;20044;-80
2024/01/09 03:30:45;;;;;;;1999.90;999.90;;;-3.80;99.90;;;;;;4992096;28;20060;-80
2024/01/09 03:33:11;;;;;;;1999.90;999.90;;;-3.80;99.90;;;;;;4992706;28;20388;-80
2024/01/09 03:35:37;;;;;;;1999.90;999.90;;;-3.90;99.90;;;;;;4987639;28;20042;-81
2024/01/09 03:38:02;;;;;;;1999.90;999.90;;;-3.90;99.90;;;;;;5007268;28;20032;-80
2024/01/09 03:40:28;;;;;;;1999.90;999.90;;;-3.90;99.90;;;;;;5004562;28;20056;-80
2024/01/09 03:42:54;;;;;;;1999.90;999.90;;;-3.90;99.90;;;;;;5010530;28;20066;-82
2024/01/09 03:45:20;;;;;;;1999.90;999.90;;;-2.60;99.90;;;;;;4993432;28;20061;-80
2024/01/09 03:47:45;;;;;;;1999.90;999.90;;;-2.60;99.90;;;;;;5006603;28;20038;-80
2024/01/09 03:50:11;;;;;;;1999.90;999.90;;;-4.00;99.90;;;;;;5007977;28;20026;-80
2024/01/09 03:52:37;;;;;;;1999.90;999.90;;;-4.00;99.90;;;;;;4983330;28;20088;-80
2024/01/09 03:55:02;;;;;;;1999.90;999.90;;;-4.10;99.90;;;;;;5004113;28;20053;-82
2024/01/09 03:57:28;;;;;;;1999.90;999.90;;;-4.10;99.90;;;;;;4991205;28;20053;-80
2024/01/09 03:59:54;;;;;;;1999.90;999.90;;;-4.10;99.90;;;;;;4987626;28;20044;-80
2024/01/09 04:02:19;;;;;;;1999.90;999.90;;;-4.10;99.90;;;;;;5002093;28;20029;-81
2024/01/09 04:04:45;;;;;;;1999.90;999.90;;;-4.10;99.90;;;;;;4994359;28;20038;-80
2024/01/09 04:07:10;;;;;;;1999.90;999.90;;;-4.10;99.90;;;;;;5018298;28;20045;-80
2024/01/09 04:09:36;;;;;;;1999.90;999.90;;;-4.10;99.90;;;;;;4997946;28;20512;-80
2024/01/09 04:12:02;;;;;;;1999.90;999.90;;;-4.10;99.90;;;;;;4995177;28;20034;-80
2024/01/09 04:14:28;;;;;;;1999.90;999.90;;;-5.60;99.90;;;;;;5003804;28;20041;-81
2024/01/09 04:16:54;;;;;;;1999.90;999.90;;;-4.20;99.90;;;;;;4986890;28;20081;-80
2024/01/09 04:19:19;;;;;;;1999.90;999.90;;;-4.20;99.90;;;;;;4988286;28;20517;-81
2024/01/09 04:21:45;;;;;;;1999.90;999.90;;;-4.20;99.90;;;;;;5003072;28;20038;-80
2024/01/09 04:24:10;;;;;;;1999.90;999.90;;;-4.30;99.90;;;;;;4989645;28;20502;-80
2024/01/09 04:26:36;;;;;;;1999.90;999.90;;;-2.90;99.90;;;;;;4995234;28;20041;-80
2024/01/09 04:29:02;;;;;;;1999.90;999.90;;;-4.30;99.90;;;;;;4988797;28;20037;-80
2024/01/09 04:31:27;;;;;;;1999.90;999.90;;;-4.30;99.90;;;;;;4987371;28;20407;-80
2024/01/09 04:33:53;;;;;;;1999.90;999.90;;;-4.30;99.90;;;;;;4990356;28;20042;-80
2024/01/09 04:36:18;;;;;;;1999.90;999.90;;;-4.30;99.90;;;;;;5002647;28;20042;-80
2024/01/09 04:38:46;;;;;;;1999.90;999.90;;;-4.30;99.90;;;;;;4994816;28;20038;-80
2024/01/09 04:41:18;;;;;;;1999.90;999.90;;;-4.30;99.90;;;;;;5009598;28;20037;-81
2024/01/09 04:43:47;;;;;;;1999.90;999.90;;;-4.30;99.90;;;;;;4989700;28;20042;-80
2024/01/09 04:46:13;;;;;;;1999.90;999.90;;;-3.30;99.90;;;;;;4989562;28;20131;-80
2024/01/09 04:48:39;;;;;;;1999.90;999.90;;;-4.30;99.90;;;;;;5004501;28;20062;-80
2024/01/09 04:51:05;;;;;;;1999.90;999.90;;;-4.30;99.90;;;;;;4986372;28;20040;-81
2024/01/09 04:53:30;;;;;;;1999.90;999.90;;;-4.30;99.90;;;;;;4987430;28;20034;-81
2024/01/09 04:55:56;;;;;;;1999.90;999.90;;;-4.40;99.90;;;;;;4996108;28;20034;-80
2024/01/09 04:58:22;;;;;;;1999.90;999.90;;;-4.40;99.90;;;;;;4987042;28;20031;-80
2024/01/09 05:00:47;;;;;;;1999.90;999.90;;;-4.40;99.90;;;;;;4997269;28;20128;-80
2024/01/09 05:03:13;;;;;;;1999.90;999.90;;;-5.30;99.90;;;;;;4986684;28;20038;-80
2024/01/09 05:05:39;;;;;;;1999.90;999.90;;;-4.40;99.90;;;;;;4985318;28;20100;-80
2024/01/09 05:08:05;;;;;;;1999.90;999.90;;;-4.40;99.90;;;;;;4990028;28;20069;-81
2024/01/09 05:10:31;;;;;;;1999.90;999.90;;;-4.40;99.90;;;;;;4984413;28;20042;-80
2024/01/09 05:12:57;;;;;;;1999.90;999.90;;;-4.30;99.90;;;;;;4989878;28;20038;-81
2024/01/09 05:15:23;;;;;;;1999.90;999.90;;;-3.70;99.90;;;;;;4984081;28;20050;-81
2024/01/09 05:17:48;;;;;;;1999.90;999.90;;;-4.60;99.90;;;;;;5003020;28;20055;-80
2024/01/09 05:20:14;;;;;;;1999.90;999.90;;;-2.90;99.90;;;;;;4987068;28;20042;-81
2024/01/09 05:22:40;;;;;;;1999.90;999.90;;;-4.50;99.90;;;;;;4989877;28;20036;-81
2024/01/09 05:25:08;;;;;;;1999.90;999.90;;;-4.60;99.90;;;;;;4990294;28;20125;-81
2024/01/09 05:27:34;;;;;;;1999.90;999.90;;;-4.50;99.90;;;;;;5019290;28;20613;-80
2024/01/09 05:30:00;;;;;;;1999.90;999.90;;;-4.60;99.90;;;;;;4988212;28;20041;-83
2024/01/09 05:32:26;;;;;;;1999.90;999.90;;;-4.60;99.90;;;;;;4991428;28;20030;-80
2024/01/09 05:34:52;;;;;;;1999.90;999.90;;;-4.60;99.90;;;;;;5004634;28;20034;-80
2024/01/09 05:37:18;;;;;;;1999.90;999.90;;;-4.60;99.90;;;;;;4995450;28;20042;-82
2024/01/09 05:39:47;;;;;;;1999.90;999.90;;;-3.50;99.90;;;;;;5009595;28;20053;-80
2024/01/09 05:42:13;;;;;;;1999.90;999.90;;;-4.60;99.90;;;;;;4990946;28;20042;-81
2024/01/09 05:44:38;;;;;;;1999.90;999.90;;;-4.60;99.90;;;;;;4995631;28;20088;-80
2024/01/09 05:47:04;;;;;;;1999.90;999.90;;;-4.60;99.90;;;;;;4995055;28;20042;-81
2024/01/09 05:49:30;;;;;;;1999.90;999.90;;;-3.70;99.90;;;;;;4993846;28;20065;-80
2024/01/09 05:51:56;;;;;;;1999.90;999.90;;;-4.80;99.90;;;;;;4988764;28;20031;-81
2024/01/09 05:54:21;;;;;;;1999.90;999.90;;;-4.70;99.90;;;;;;4995478;28;20106;-81
2024/01/09 05:56:47;;;;;;;1999.90;999.90;;;-4.90;99.90;;;;;;5011371;28;20056;-83
2024/01/09 05:59:12;;;;;;;1999.90;999.90;;;-4.70;99.90;;;;;;4992667;28;20066;-82
2024/01/09 06:01:38;;;;;;;1999.90;999.90;;;-4.70;99.90;;;;;;4994201;28;20038;-81
2024/01/09 06:04:04;;;;;;;1999.90;999.90;;;-3.50;99.90;;;;;;5002339;28;20038;-81
2024/01/09 06:06:30;;;;;;;1999.90;999.90;;;-4.70;99.90;;;;;;4994600;28;20033;-81
2024/01/09 06:08:56;;;;;;;1999.90;999.90;;;-4.70;99.90;;;;;;5003178;28;20029;-81
2024/01/09 06:11:21;;;;;;;1999.90;999.90;;;-3.20;99.90;;;;;;4996849;28;20040;-82
2024/01/09 06:13:47;;;;;;;1999.90;999.90;;;-3.30;99.90;;;;;;4994927;28;20579;-81
2024/01/09 06:16:13;;;;;;;1999.90;999.90;;;-3.50;99.90;;;;;;4998191;28;20030;-81
2024/01/09 06:18:39;;;;;;;1999.90;999.90;;;-3.10;99.90;;;;;;4993761;28;20093;-81
2024/01/09 06:21:05;;;;;;;1999.90;999.90;;;-4.80;99.90;;;;;;5008532;28;20105;-82
2024/01/09 06:23:30;;;;;;;1999.90;999.90;;;-3.60;99.90;;;;;;4991951;28;20110;-81
2024/01/09 06:25:56;;;;;;;1999.90;999.90;;;-3.80;99.90;;;;;;5014446;28;20036;-82
2024/01/09 06:28:22;;;;;;;1999.90;999.90;;;-4.80;99.90;;;;;;4995243;28;20073;-81
2024/01/09 06:30:47;;;;;;;1999.90;999.90;;;-4.80;99.90;;;;;;4997562;28;20125;-81
2024/01/09 06:33:13;;;;;;;1999.90;999.90;;;-4.10;99.90;;;;;;4995088;28;20042;-81
2024/01/09 06:35:39;;;;;;;1999.90;999.90;;;-4.80;99.90;;;;;;4999248;28;20065;-82
2024/01/09 06:38:04;;;;;;;1999.90;999.90;;;-4.80;99.90;;;;;;4993383;28;20399;-82
2024/01/09 06:40:30;;;;;;;1999.90;999.90;;;-4.80;99.90;;;;;;5009607;28;20050;-82
2024/01/09 06:42:56;;;;;;;1999.90;999.90;;;-3.20;99.90;;;;;;4999255;28;20469;-81
2024/01/09 06:45:22;;;;;;;1999.90;999.90;;;-4.40;99.90;;;;;;5006278;28;20064;-82
2024/01/09 06:47:47;;;;;;;1999.90;999.90;;;-3.10;99.90;;;;;;5016001;28;20038;-82
2024/01/09 06:50:13;;;;;;;1999.90;999.90;;;-3.30;99.90;;;;;;4993631;28;20135;-82
2024/01/09 06:52:39;;;;;;;1999.90;999.90;;;-4.80;99.90;;;;;;5010770;28;20510;-82
2024/01/09 06:55:05;;;;;;;1999.90;999.90;;;-3.40;99.90;;;;;;4999463;28;20042;-82
2024/01/09 06:57:31;;;;;;;1999.90;999.90;;;-4.90;99.90;;;;;;4998557;28;20471;-82
2024/01/09 06:59:56;;;;;;;1999.90;999.90;;;-4.80;99.90;;;;;;4999413;28;20080;-83
2024/01/09 07:02:22;;;;;;;1999.90;999.90;;;-4.00;99.90;;;;;;4998825;28;20049;-82
2024/01/09 07:04:48;;;;;;;1999.90;999.90;;;-4.90;99.90;;;;;;5001027;28;20041;-83
2024/01/09 07:07:14;;;;;;;1999.90;999.90;;;-4.90;99.90;;;;;;5001802;28;20065;-81
2024/01/09 07:09:40;;;;;;;1999.90;999.90;;;-4.90;99.90;;;;;;4996928;28;20036;-82
2024/01/09 07:12:09;;;;;;;1999.90;999.90;;;-5.00;99.90;;;;;;4999651;28;20371;-81
2024/01/09 07:14:36;;;;;;;1999.90;999.90;;;-4.60;99.90;;;;;;4992589;28;20095;-81
2024/01/09 07:17:05;;;;;;;1999.90;999.90;;;-3.20;99.90;;;;;;5010643;28;20403;-81
2024/01/09 07:19:31;;;;;;;1999.90;999.90;;;-3.20;99.90;;;;;;5006808;28;20053;-82
2024/01/09 07:21:59;;;;;;;1999.90;999.90;;;-5.40;99.90;;;;;;4993723;28;20038;-81
2024/01/09 07:24:25;;;;;;;1999.90;999.90;;;-3.60;99.90;;;;;;4991862;28;20038;-82
2024/01/09 07:26:51;;;;;;;1999.90;999.90;;;-5.10;99.90;;;;;;4991778;28;20042;-81
2024/01/09 07:29:19;;;;;;;1999.90;999.90;;;-4.80;99.90;;;;;;4993276;28;20388;-81
2024/01/09 07:31:45;;;;;;;1999.90;999.90;;;-3.60;99.90;;;;;;4988773;28;20396;-81
2024/01/09 07:34:11;;;;;;;1999.90;999.90;;;-3.60;99.90;;;;;;4990183;28;20038;-81
2024/01/09 07:36:37;;;;;;;1999.90;999.90;;;-4.20;99.90;;;;;;4993432;28;20570;-81
2024/01/09 07:39:05;;;;;;;1999.90;999.90;;;-3.70;99.90;;;;;;5006716;28;20034;-81
2024/01/09 07:41:31;;;;;;;1999.90;999.90;;;-3.60;99.90;;;;;;5012540;28;20172;-81
2024/01/09 07:43:57;;;;;;;1999.90;999.90;;;-4.10;99.90;;;;;;4994213;28;20463;-81
2024/01/09 07:46:22;;;;;;;1999.90;999.90;;;-3.70;99.90;;;;;;5012877;28;20038;-81
2024/01/09 07:48:48;;;;;;;1999.90;999.90;;;-4.50;99.90;;;;;;4994224;28;20104;-81
2024/01/09 07:51:14;;;;;;;1999.90;999.90;;;-4.10;99.90;;;;;;4985494;28;20034;-82
2024/01/09 07:53:40;;;;;;;1999.90;999.90;;;-4.00;99.90;;;;;;4997828;28;20080;-81
2024/01/09 07:56:18;;;;;;;1999.90;999.90;;;-5.50;99.90;;;;;;4996234;28;20446;-82
2024/01/09 07:58:45;;;;;;;1999.90;999.90;;;-5.10;99.90;;;;;;5001167;28;20045;-82
2024/01/09 08:01:14;;;;;;;1999.90;999.90;;;-5.00;99.90;;;;;;4991177;28;20053;-81
2024/01/09 08:03:41;;;;;;;1999.90;999.90;;;-5.10;99.90;;;;;;5009994;28;20406;-82
2024/01/09 08:06:15;;;;;;;1999.90;999.90;;;-5.00;99.90;;;;;;4989474;28;20144;-82
2024/01/09 08:08:41;;;;;;;1999.90;999.90;;;-5.00;99.90;;;;;;4989428;28;20034;-81
2024/01/09 08:11:08;;;;;;;1999.90;999.90;;;-5.90;99.90;;;;;;4991999;28;20034;-82
2024/01/09 08:13:35;;;;;;;1999.90;999.90;;;-5.00;99.90;;;;;;5010832;28;20321;-81
2024/01/09 08:16:00;;;;;;;1999.90;999.90;;;-4.10;99.90;;;;;;4995992;28;20033;-82
2024/01/09 08:18:26;;;;;;;1999.90;999.90;;;-3.40;99.90;;;;;;4998511;28;20045;-82
2024/01/09 08:20:52;;;;;;;1999.90;999.90;;;-3.70;99.90;;;;;;4993167;28;20086;-82
2024/01/09 08:23:17;;;;;;;1999.90;999.90;;;-3.40;99.90;;;;;;4990685;28;20046;-82
2024/01/09 08:25:43;;;;;;;1999.90;999.90;;;-3.60;99.90;;;;;;4998429;28;20065;-82
2024/01/09 08:28:09;;;;;;;1999.90;999.90;;;-4.10;99.90;;;;;;4998402;28;20065;-81
2024/01/09 08:30:35;;;;;;;1999.90;999.90;;;-4.00;99.90;;;;;;5001453;28;20038;-82
2024/01/09 08:33:01;;;;;;;1999.90;999.90;;;-4.30;99.90;;;;;;4999348;28;20060;-81
2024/01/09 08:35:27;;;;;;;1999.90;999.90;;;-4.90;99.90;;;;;;4993942;28;20046;-83
2024/01/09 08:37:52;;;;;;;1999.90;999.90;;;-3.60;99.90;;;;;;4996436;28;20065;-81
2024/01/09 08:40:18;;;;;;;1999.90;999.90;;;-4.40;99.90;;;;;;5011635;28;20246;-82
2024/01/09 08:42:44;;;;;;;1999.90;999.90;;;-3.80;99.90;;;;;;4992466;28;20033;-82
2024/01/09 08:45:11;;;;;;;1999.90;999.90;;;-3.60;99.90;;;;;;4991898;28;20034;-81
2024/01/09 08:47:37;;;;;;;1999.90;999.90;;;-3.40;99.90;;;;;;4998530;28;20544;-81
2024/01/09 08:50:04;;;;;;;1999.90;999.90;;;-3.40;99.90;;;;;;4988971;28;20122;-82
2024/01/09 08:52:31;;;;;;;1999.90;999.90;;;-4.70;99.90;;;;;;4993263;28;20069;-81
2024/01/09 08:54:56;;;;;;;1999.90;999.90;;;-4.00;99.90;;;;;;4996152;28;20084;-81
2024/01/09 08:57:25;;;;;;;1999.90;999.90;;;-4.60;99.90;;;;;;5010104;28;20038;-82
2024/01/09 08:59:51;;;;;;;1999.90;999.90;;;-4.60;99.90;;;;;;4994847;28;20038;-81
2024/01/09 09:02:17;;;;;;;1999.90;999.90;;;-4.60;99.90;;;;;;5007393;28;20041;-81
2024/01/09 09:04:42;;;;;;;1999.90;999.90;;;-4.50;99.90;;;;;;4997779;28;20042;-82
2024/01/09 09:07:08;;;;;;;1999.90;999.90;;;-4.50;99.90;;;;;;4997475;28;20038;-81
2024/01/09 09:09:35;;;;;;;1999.90;999.90;;;-4.50;99.90;;;;;;4992202;28;20103;-81
2024/01/09 09:12:02;;;;;;;1999.90;999.90;;;-3.40;99.90;;;;;;4992805;28;20531;-81
2024/01/09 09:14:28;;;;;;;1999.90;999.90;;;-3.30;99.90;;;;;;4994539;28;20042;-81
2024/01/09 09:16:53;;;;;;;1999.90;999.90;;;-3.30;99.90;;;;;;4999836;28;20037;-81
2024/01/09 09:19:22;;;;;;;1999.90;999.90;;;-2.60;99.90;;;;;;5004583;28;20184;-82
2024/01/09 09:21:51;;;;;;;1999.90;999.90;;;-3.50;99.90;;;;;;5001727;28;20046;-83
2024/01/09 09:24:16;;;;;;;1999.90;999.90;;;-4.30;99.90;;;;;;5008261;28;20262;-82
2024/01/09 09:26:42;;;;;;;1999.90;999.90;;;-3.30;99.90;;;;;;4998755;28;20038;-83
2024/01/09 09:29:10;;;;;;;1999.90;999.90;;;-3.10;99.90;;;;;;4994948;28;20044;-81
2024/01/09 09:31:35;;;;;;;1999.90;999.90;;;-4.60;99.90;;;;;;4995855;28;20042;-82
2024/01/09 09:34:01;;;;;;;1999.90;999.90;;;-3.10;99.90;;;;;;4994823;28;20172;-81
2024/01/09 09:36:27;;;;;;;1999.90;999.90;;;-3.30;99.90;;;;;;4992706;28;20058;-81
2024/01/09 09:38:53;;;;;;;1999.90;999.90;;;-4.60;99.90;;;;;;4992419;28;20050;-81
2024/01/09 09:41:20;;;;;;;1999.90;941.97;;;-4.60;99.90;;;;;;4990412;28;20065;-80
2024/01/09 09:44:07;;;;;;;1999.90;999.90;;;-5.30;99.90;;;;;;4991676;28;20034;-82
2024/01/09 09:46:35;;;;;;;1999.90;999.90;;;-2.60;99.90;;;;;;4992616;28;20418;-81
2024/01/09 09:49:03;;;;;;;1999.90;999.90;;;-4.10;99.90;;;;;;5013140;28;20037;-81
2024/01/09 09:51:29;;;;;;;1999.90;999.90;;;-4.00;99.90;;;;;;4995176;28;20107;-82
2024/01/09 09:53:55;;;;;;;1999.90;999.90;;;-2.10;99.90;;;;;;4987287;28;20038;-81
2024/01/09 09:56:21;;;;;;;1999.90;999.90;;;-2.30;99.90;;;;;;5002160;28;20042;-81
2024/01/09 09:58:47;;;;;;;1999.90;999.90;;;-4.40;99.90;;;;;;4998559;28;20131;-81
2024/01/09 10:01:14;;;;;;;1999.90;999.90;;;-2.60;99.90;;;;;;5013407;28;20498;-80
2024/01/09 10:04:01;;;;;;;1999.90;999.90;;;-2.60;99.90;;;;;;4992661;28;20052;-80
2024/01/09 10:06:28;;;;;;;1999.90;999.90;;;-3.50;99.90;;;;;;4990525;28;20052;-81
2024/01/09 10:08:56;;;;;;;1999.90;999.90;;;-3.90;99.90;;;;;;4990055;28;20039;-80
2024/01/09 10:11:23;;;;;;;1999.90;999.90;;;-4.10;99.90;;;;;;5009351;28;20038;-80
2024/01/09 10:13:49;;;;;;;1999.90;999.90;;;-3.50;99.90;;;;;;4992996;28;20560;-81
2024/01/09 10:16:15;;;;;;;1999.90;999.90;;;-2.40;99.90;;;;;;4999576;28;20077;-80
2024/01/09 10:18:40;;;;;;;1999.90;999.90;;;-1.50;99.90;;;;;;4996044;28;20304;-81
2024/01/09 10:21:07;;;;;;;1999.90;999.90;;;-1.70;99.90;;;;;;5008875;28;20038;-80
2024/01/09 10:23:39;;;;;;;1999.90;999.90;;;-3.50;99.90;;;;;;5011366;28;20068;-81
2024/01/09 10:26:11;;;;;;;1999.90;999.90;;;-1.80;99.90;;;;;;4991389;28;20486;-80
2024/01/09 10:28:37;;;;;;;1999.90;999.90;;;-3.20;99.90;;;;;;4991025;28;20034;-81
2024/01/09 10:31:06;;;;;;;1999.90;999.90;;;-3.20;99.90;;;;;;5012456;28;20049;-82
2024/01/09 10:33:32;;;;;;;1999.90;999.90;;;-1.80;99.90;;;;;;4994257;28;20117;-81
2024/01/09 10:35:58;;;;;;;1999.90;999.90;;;-3.10;99.90;;;;;;4990980;28;20050;-81
2024/01/09 10:38:25;;;;;;;1999.90;999.90;;;-3.10;99.90;;;;;;4998090;28;20057;-80
2024/01/09 10:40:57;;;;;;;1999.90;999.90;;;-3.10;99.90;;;;;;5003067;28;20049;-82
2024/01/09 10:43:24;;;;;;;1999.90;999.90;;;-3.00;99.90;;;;;;5019300;28;20536;-80
2024/01/09 10:45:52;;;;;;;1999.90;999.90;;;-3.00;99.90;;;;;;5010324;28;20034;-81
2024/01/09 10:48:20;;;;;;;1999.90;999.90;;;-3.10;99.90;;;;;;4995393;28;20042;-81
2024/01/09 10:50:48;;;;;;;1999.90;999.90;;;-2.90;99.90;;;;;;4991818;28;20034;-80
2024/01/09 10:53:15;;;;;;;1999.90;999.90;;;-2.80;99.90;;;;;;5011338;28;20045;-81
2024/01/09 10:55:43;;;;;;;1999.90;999.90;;;-3.20;99.90;;;;;;4995744;28;20034;-81
2024/01/09 10:58:10;;;;;;;1999.90;999.90;;;-1.50;99.90;;;;;;5001860;28;20066;-80
2024/01/09 11:00:38;;;;;;;1999.90;999.90;;;-1.70;99.90;;;;;;5036214;28;20032;-80
2024/01/09 11:03:05;;;;;;;1999.90;999.90;;;-1.60;99.90;;;;;;4992563;28;20478;-81
2024/01/09 11:05:31;;;;;;;1999.90;999.90;;;-2.60;99.90;;;;;;5000354;28;20041;-81
2024/01/09 11:07:59;;;;;;;1999.90;999.90;;;-2.60;99.90;;;;;;4996013;28;20034;-81
2024/01/09 11:10:25;;;;;;;1999.90;999.90;;;-0.70;99.90;;;;;;4990692;28;20041;-80
2024/01/09 11:12:53;;;;;;;1999.90;999.90;;;-2.40;99.90;;;;;;5006797;28;20063;-81
2024/01/09 11:15:26;;;;;;;1999.90;999.90;;;-1.10;99.90;;;;;;4991551;28;20046;-81
2024/01/09 11:17:58;;;;;;;1999.90;999.90;;;-2.30;99.90;;;;;;4990290;28;20041;-81
2024/01/09 11:20:23;;;;;;;1999.90;999.90;;;-1.30;99.90;;;;;;5011879;28;20041;-80
2024/01/09 11:22:49;;;;;;;1999.90;999.90;;;-1.90;99.90;;;;;;5005402;28;20077;-80
2024/01/09 11:25:20;;;;;;;1999.90;999.90;;;-2.20;99.90;;;;;;4989469;28;20501;-81
2024/01/09 11:27:51;;;;;;;1999.90;999.90;;;-2.10;99.90;;;;;;4990015;28;20418;-80
2024/01/09 11:30:21;;;;;;;1999.90;999.90;;;-3.10;99.90;;;;;;4993412;28;20041;-80
2024/01/09 11:32:47;;;;;;;1999.90;999.90;;;-2.10;99.90;;;;;;4993176;28;20034;-81
2024/01/09 11:35:14;;;;;;;1999.90;999.90;;;-2.10;99.90;;;;;;5005752;28;20100;-80
2024/01/09 11:37:46;;;;;;;1999.90;999.90;;;-2.00;99.90;;;;;;4985369;28;20053;-80
2024/01/09 11:40:13;;;;;;;1999.90;999.90;;;-1.90;99.90;;;;;;4993111;28;20115;-81
2024/01/09 11:42:43;;;;;;;1999.90;999.90;;;-0.70;99.90;;;;;;4990383;28;20042;-80
2024/01/09 11:45:09;;;;;;;1999.90;999.90;;;-1.70;99.90;;;;;;4992705;28;20038;-81
2024/01/09 11:47:42;;;;;;;1999.90;999.90;;;-1.80;99.90;;;;;;4997595;28;20034;-80
2024/01/09 11:50:10;;;;;;;1999.90;999.90;;;-1.80;99.90;;;;;;5006592;28;20065;-80
2024/01/09 11:52:37;;;;;;;1999.90;999.90;;;-1.80;99.90;;;;;;5000491;28;20113;-80
2024/01/09 11:55:04;;;;;;;1999.90;999.90;;;-1.70;99.90;;;;;;4988526;28;20050;-80